sensor_id;sensor_type;location;lat;lon;timestamp;P1;durP1;ratioP1;P2;durP2;ratioP2
60352;SDS011;46196;52.970;6.954;2022-11-21T00:03:46;16.27;;;10.70;;
60352;SDS011;46196;52.970;6.954;2022-11-21T00:06:13;15.48;;;9.90;;
60352;SDS011;46196;52.970;6.954;2022-11-21T00:08:39;16.35;;;10.20;;
60352;SDS011;46196;52.970;6.954;2022-11-21T00:11:05;14.20;;;10.10;;
60352;SDS011;46196;52.970;6.954;2022-11-21T00:13:31;16.25;;;10.75;;
60352;SDS011;46196;52.970;6.954;2022-11-21T00:16:01;17.35;;;10.88;;
60352;SDS011;46196;52.970;6.954;2022-11-21T00:18:28;15.50;;;10.02;;
60352;SDS011;46196;52.970;6.954;2022-11-21T00:20:54;14.65;;;9.70;;
60352;SDS011;46196;52.970;6.954;2022-11-21T00:23:20;13.52;;;10.30;;
60352;SDS011;46196;52.970;6.954;2022-11-21T00:25:46;16.65;;;10.38;;
60352;SDS011;46196;52.970;6.954;2022-11-21T00:28:11;14.48;;;10.43;;
60352;SDS011;46196;52.970;6.954;2022-11-21T00:30:37;15.90;;;10.95;;
60352;SDS011;46196;52.970;6.954;2022-11-21T00:33:03;14.18;;;9.90;;
60352;SDS011;46196;52.970;6.954;2022-11-21T00:35:29;15.50;;;10.23;;
60352;SDS011;46196;52.970;6.954;2022-11-21T00:37:55;14.95;;;10.35;;
60352;SDS011;46196;52.970;6.954;2022-11-21T00:40:21;14.50;;;9.93;;
60352;SDS011;46196;52.970;6.954;2022-11-21T00:42:46;13.52;;;9.05;;
60352;SDS011;46196;52.970;6.954;2022-11-21T00:45:12;14.68;;;10.07;;
60352;SDS011;46196;52.970;6.954;2022-11-21T00:47:38;15.45;;;10.65;;
60352;SDS011;46196;52.970;6.954;2022-11-21T00:50:04;16.92;;;10.27;;
60352;SDS011;46196;52.970;6.954;2022-11-21T00:52:30;16.13;;;10.25;;
60352;SDS011;46196;52.970;6.954;2022-11-21T00:54:56;15.02;;;9.63;;
60352;SDS011;46196;52.970;6.954;2022-11-21T00:57:21;14.10;;;9.90;;
60352;SDS011;46196;52.970;6.954;2022-11-21T00:59:47;13.77;;;9.13;;
60352;SDS011;46196;52.970;6.954;2022-11-21T01:02:13;16.58;;;10.38;;
60352;SDS011;46196;52.970;6.954;2022-11-21T01:04:39;16.90;;;10.57;;
60352;SDS011;46196;52.970;6.954;2022-11-21T01:07:04;14.93;;;10.27;;
60352;SDS011;46196;52.970;6.954;2022-11-21T01:09:30;14.60;;;10.07;;
60352;SDS011;46196;52.970;6.954;2022-11-21T01:11:56;14.48;;;9.82;;
60352;SDS011;46196;52.970;6.954;2022-11-21T01:14:22;14.85;;;10.43;;
60352;SDS011;46196;52.970;6.954;2022-11-21T01:16:48;14.20;;;9.93;;
60352;SDS011;46196;52.970;6.954;2022-11-21T01:19:14;15.52;;;9.93;;
60352;SDS011;46196;52.970;6.954;2022-11-21T01:21:40;14.63;;;9.93;;
60352;SDS011;46196;52.970;6.954;2022-11-21T01:24:05;18.27;;;10.35;;
60352;SDS011;46196;52.970;6.954;2022-11-21T01:26:31;15.57;;;10.60;;
60352;SDS011;46196;52.970;6.954;2022-11-21T01:28:57;16.00;;;10.82;;
60352;SDS011;46196;52.970;6.954;2022-11-21T01:31:24;14.43;;;9.45;;
60352;SDS011;46196;52.970;6.954;2022-11-21T01:33:53;12.38;;;8.45;;
60352;SDS011;46196;52.970;6.954;2022-11-21T01:36:23;16.38;;;11.05;;
60352;SDS011;46196;52.970;6.954;2022-11-21T01:38:54;19.08;;;10.77;;
60352;SDS011;46196;52.970;6.954;2022-11-21T01:41:25;15.05;;;10.48;;
60352;SDS011;46196;52.970;6.954;2022-11-21T01:43:55;15.32;;;10.02;;
60352;SDS011;46196;52.970;6.954;2022-11-21T01:46:22;15.65;;;10.18;;
60352;SDS011;46196;52.970;6.954;2022-11-21T01:54:23;14.45;;;9.07;;
60352;SDS011;46196;52.970;6.954;2022-11-21T01:57:05;12.93;;;9.05;;
60352;SDS011;46196;52.970;6.954;2022-11-21T02:02:26;13.82;;;9.63;;
60352;SDS011;46196;52.970;6.954;2022-11-21T02:04:54;15.18;;;10.30;;
60352;SDS011;46196;52.970;6.954;2022-11-21T02:07:22;17.33;;;10.27;;
60352;SDS011;46196;52.970;6.954;2022-11-21T02:09:51;11.93;;;8.90;;
60352;SDS011;46196;52.970;6.954;2022-11-21T02:15:02;15.55;;;10.45;;
60352;SDS011;46196;52.970;6.954;2022-11-21T02:17:29;14.98;;;10.32;;
60352;SDS011;46196;52.970;6.954;2022-11-21T02:25:25;16.48;;;10.52;;
60352;SDS011;46196;52.970;6.954;2022-11-21T02:27:57;15.93;;;10.80;;
60352;SDS011;46196;52.970;6.954;2022-11-21T02:30:26;15.77;;;9.57;;
60352;SDS011;46196;52.970;6.954;2022-11-21T02:32:54;16.25;;;10.15;;
60352;SDS011;46196;52.970;6.954;2022-11-21T02:35:19;16.60;;;9.95;;
60352;SDS011;46196;52.970;6.954;2022-11-21T02:38:10;16.10;;;10.98;;
60352;SDS011;46196;52.970;6.954;2022-11-21T02:40:59;17.63;;;11.15;;
60352;SDS011;46196;52.970;6.954;2022-11-21T02:43:32;16.40;;;9.90;;
60352;SDS011;46196;52.970;6.954;2022-11-21T02:46:06;12.13;;;9.52;;
60352;SDS011;46196;52.970;6.954;2022-11-21T02:48:32;16.85;;;9.95;;
60352;SDS011;46196;52.970;6.954;2022-11-21T02:50:59;14.10;;;9.98;;
60352;SDS011;46196;52.970;6.954;2022-11-21T02:53:24;15.98;;;10.85;;
60352;SDS011;46196;52.970;6.954;2022-11-21T02:55:50;14.05;;;9.98;;
60352;SDS011;46196;52.970;6.954;2022-11-21T02:58:16;14.35;;;9.95;;
60352;SDS011;46196;52.970;6.954;2022-11-21T03:00:42;16.30;;;11.45;;
60352;SDS011;46196;52.970;6.954;2022-11-21T03:03:08;15.80;;;9.75;;
60352;SDS011;46196;52.970;6.954;2022-11-21T03:05:34;14.82;;;10.73;;
60352;SDS011;46196;52.970;6.954;2022-11-21T03:08:00;17.23;;;10.25;;
60352;SDS011;46196;52.970;6.954;2022-11-21T03:10:26;14.32;;;9.90;;
60352;SDS011;46196;52.970;6.954;2022-11-21T03:12:51;17.90;;;11.77;;
60352;SDS011;46196;52.970;6.954;2022-11-21T03:15:25;17.42;;;10.93;;
60352;SDS011;46196;52.970;6.954;2022-11-21T03:17:52;16.38;;;11.32;;
60352;SDS011;46196;52.970;6.954;2022-11-21T03:20:18;15.55;;;10.48;;
60352;SDS011;46196;52.970;6.954;2022-11-21T03:22:44;21.90;;;11.85;;
60352;SDS011;46196;52.970;6.954;2022-11-21T03:25:10;17.00;;;11.10;;
60352;SDS011;46196;52.970;6.954;2022-11-21T03:27:35;17.98;;;11.10;;
60352;SDS011;46196;52.970;6.954;2022-11-21T03:30:01;22.00;;;13.88;;
60352;SDS011;46196;52.970;6.954;2022-11-21T03:32:27;29.75;;;16.25;;
60352;SDS011;46196;52.970;6.954;2022-11-21T03:34:53;18.92;;;12.80;;
60352;SDS011;46196;52.970;6.954;2022-11-21T03:37:18;18.67;;;12.32;;
60352;SDS011;46196;52.970;6.954;2022-11-21T03:39:44;17.85;;;12.13;;
60352;SDS011;46196;52.970;6.954;2022-11-21T03:42:10;16.50;;;11.55;;
60352;SDS011;46196;52.970;6.954;2022-11-21T03:44:36;15.20;;;9.65;;
60352;SDS011;46196;52.970;6.954;2022-11-21T03:47:02;17.92;;;11.65;;
60352;SDS011;46196;52.970;6.954;2022-11-21T03:49:28;18.48;;;11.80;;
60352;SDS011;46196;52.970;6.954;2022-11-21T03:51:53;16.10;;;11.93;;
60352;SDS011;46196;52.970;6.954;2022-11-21T03:54:19;16.67;;;11.15;;
60352;SDS011;46196;52.970;6.954;2022-11-21T03:56:45;16.70;;;10.60;;
60352;SDS011;46196;52.970;6.954;2022-11-21T03:59:10;16.38;;;10.70;;
60352;SDS011;46196;52.970;6.954;2022-11-21T04:01:36;15.88;;;11.73;;
60352;SDS011;46196;52.970;6.954;2022-11-21T04:04:02;16.95;;;10.98;;
60352;SDS011;46196;52.970;6.954;2022-11-21T04:06:28;15.82;;;10.80;;
60352;SDS011;46196;52.970;6.954;2022-11-21T04:08:55;17.00;;;11.38;;
60352;SDS011;46196;52.970;6.954;2022-11-21T04:11:21;19.75;;;10.90;;
60352;SDS011;46196;52.970;6.954;2022-11-21T04:13:49;18.77;;;12.13;;
60352;SDS011;46196;52.970;6.954;2022-11-21T04:16:15;17.38;;;11.43;;
60352;SDS011;46196;52.970;6.954;2022-11-21T04:18:41;15.80;;;11.10;;
60352;SDS011;46196;52.970;6.954;2022-11-21T04:21:07;16.45;;;11.57;;
60352;SDS011;46196;52.970;6.954;2022-11-21T04:23:33;18.10;;;12.20;;
60352;SDS011;46196;52.970;6.954;2022-11-21T04:25:59;20.17;;;12.93;;
60352;SDS011;46196;52.970;6.954;2022-11-21T04:28:25;22.13;;;11.80;;
60352;SDS011;46196;52.970;6.954;2022-11-21T04:30:51;17.42;;;10.15;;
60352;SDS011;46196;52.970;6.954;2022-11-21T04:33:17;16.08;;;11.23;;
60352;SDS011;46196;52.970;6.954;2022-11-21T04:35:43;17.55;;;11.98;;
60352;SDS011;46196;52.970;6.954;2022-11-21T04:38:10;18.67;;;10.88;;
60352;SDS011;46196;52.970;6.954;2022-11-21T04:40:37;17.38;;;12.07;;
60352;SDS011;46196;52.970;6.954;2022-11-21T04:43:03;17.75;;;12.15;;
60352;SDS011;46196;52.970;6.954;2022-11-21T04:45:29;17.30;;;11.63;;
60352;SDS011;46196;52.970;6.954;2022-11-21T04:47:55;19.15;;;12.23;;
60352;SDS011;46196;52.970;6.954;2022-11-21T04:50:21;18.48;;;11.75;;
60352;SDS011;46196;52.970;6.954;2022-11-21T04:52:50;19.92;;;12.05;;
60352;SDS011;46196;52.970;6.954;2022-11-21T04:55:18;18.85;;;12.05;;
60352;SDS011;46196;52.970;6.954;2022-11-21T04:57:44;19.42;;;12.27;;
60352;SDS011;46196;52.970;6.954;2022-11-21T05:00:11;21.60;;;12.50;;
60352;SDS011;46196;52.970;6.954;2022-11-21T05:02:41;20.27;;;11.93;;
60352;SDS011;46196;52.970;6.954;2022-11-21T05:05:08;20.52;;;12.30;;
60352;SDS011;46196;52.970;6.954;2022-11-21T05:07:34;17.58;;;12.30;;
60352;SDS011;46196;52.970;6.954;2022-11-21T05:10:00;19.60;;;12.18;;
60352;SDS011;46196;52.970;6.954;2022-11-21T05:12:26;18.33;;;11.77;;
60352;SDS011;46196;52.970;6.954;2022-11-21T05:15:10;20.08;;;12.40;;
60352;SDS011;46196;52.970;6.954;2022-11-21T05:17:36;20.48;;;12.50;;
60352;SDS011;46196;52.970;6.954;2022-11-21T05:20:01;22.60;;;13.75;;
60352;SDS011;46196;52.970;6.954;2022-11-21T05:22:27;22.20;;;13.88;;
60352;SDS011;46196;52.970;6.954;2022-11-21T05:24:53;20.85;;;13.50;;
60352;SDS011;46196;52.970;6.954;2022-11-21T05:27:19;21.70;;;13.30;;
60352;SDS011;46196;52.970;6.954;2022-11-21T05:29:45;19.92;;;13.32;;
60352;SDS011;46196;52.970;6.954;2022-11-21T05:32:11;16.63;;;11.32;;
60352;SDS011;46196;52.970;6.954;2022-11-21T05:34:36;19.75;;;12.77;;
60352;SDS011;46196;52.970;6.954;2022-11-21T05:37:02;20.25;;;13.48;;
60352;SDS011;46196;52.970;6.954;2022-11-21T05:39:31;18.27;;;11.65;;
60352;SDS011;46196;52.970;6.954;2022-11-21T05:42:09;20.95;;;12.80;;
60352;SDS011;46196;52.970;6.954;2022-11-21T05:44:34;20.23;;;13.32;;
60352;SDS011;46196;52.970;6.954;2022-11-21T05:47:00;22.30;;;13.50;;
60352;SDS011;46196;52.970;6.954;2022-11-21T05:49:26;21.70;;;12.75;;
60352;SDS011;46196;52.970;6.954;2022-11-21T05:51:52;21.42;;;13.18;;
60352;SDS011;46196;52.970;6.954;2022-11-21T05:54:17;25.35;;;13.80;;
60352;SDS011;46196;52.970;6.954;2022-11-21T05:56:43;20.70;;;13.70;;
60352;SDS011;46196;52.970;6.954;2022-11-21T05:59:09;20.48;;;12.95;;
60352;SDS011;46196;52.970;6.954;2022-11-21T06:01:35;18.77;;;12.52;;
60352;SDS011;46196;52.970;6.954;2022-11-21T06:04:20;18.10;;;12.27;;
60352;SDS011;46196;52.970;6.954;2022-11-21T06:06:46;21.23;;;12.40;;
60352;SDS011;46196;52.970;6.954;2022-11-21T06:09:11;22.70;;;13.25;;
60352;SDS011;46196;52.970;6.954;2022-11-21T06:11:37;21.77;;;13.38;;
60352;SDS011;46196;52.970;6.954;2022-11-21T06:14:03;20.83;;;13.73;;
60352;SDS011;46196;52.970;6.954;2022-11-21T06:16:29;20.55;;;13.02;;
60352;SDS011;46196;52.970;6.954;2022-11-21T06:18:54;21.83;;;14.10;;
60352;SDS011;46196;52.970;6.954;2022-11-21T06:21:21;23.10;;;13.73;;
60352;SDS011;46196;52.970;6.954;2022-11-21T06:23:52;21.27;;;13.32;;
60352;SDS011;46196;52.970;6.954;2022-11-21T06:26:25;20.40;;;12.95;;
60352;SDS011;46196;52.970;6.954;2022-11-21T06:28:51;21.75;;;13.18;;
60352;SDS011;46196;52.970;6.954;2022-11-21T06:31:19;22.25;;;13.90;;
60352;SDS011;46196;52.970;6.954;2022-11-21T06:33:55;18.30;;;11.93;;
60352;SDS011;46196;52.970;6.954;2022-11-21T06:36:22;20.27;;;12.82;;
60352;SDS011;46196;52.970;6.954;2022-11-21T06:38:48;18.02;;;12.38;;
60352;SDS011;46196;52.970;6.954;2022-11-21T06:41:18;33.10;;;18.77;;
60352;SDS011;46196;52.970;6.954;2022-11-21T06:43:45;22.60;;;13.93;;
60352;SDS011;46196;52.970;6.954;2022-11-21T06:46:11;21.33;;;13.68;;
60352;SDS011;46196;52.970;6.954;2022-11-21T06:48:38;21.48;;;13.18;;
60352;SDS011;46196;52.970;6.954;2022-11-21T06:51:04;20.35;;;11.88;;
60352;SDS011;46196;52.970;6.954;2022-11-21T06:53:32;22.38;;;13.68;;
60352;SDS011;46196;52.970;6.954;2022-11-21T06:55:58;21.75;;;13.85;;
60352;SDS011;46196;52.970;6.954;2022-11-21T06:58:24;22.02;;;13.30;;
60352;SDS011;46196;52.970;6.954;2022-11-21T07:00:50;22.80;;;13.48;;
60352;SDS011;46196;52.970;6.954;2022-11-21T07:03:16;26.92;;;17.30;;
60352;SDS011;46196;52.970;6.954;2022-11-21T07:05:42;25.83;;;15.63;;
60352;SDS011;46196;52.970;6.954;2022-11-21T07:08:08;23.35;;;14.27;;
60352;SDS011;46196;52.970;6.954;2022-11-21T07:10:33;22.67;;;14.38;;
60352;SDS011;46196;52.970;6.954;2022-11-21T07:13:00;22.02;;;13.88;;
60352;SDS011;46196;52.970;6.954;2022-11-21T07:15:45;19.75;;;13.57;;
60352;SDS011;46196;52.970;6.954;2022-11-21T07:18:11;21.60;;;12.82;;
60352;SDS011;46196;52.970;6.954;2022-11-21T07:20:38;23.35;;;12.98;;
60352;SDS011;46196;52.970;6.954;2022-11-21T07:23:04;19.27;;;12.35;;
60352;SDS011;46196;52.970;6.954;2022-11-21T07:25:30;23.27;;;13.10;;
60352;SDS011;46196;52.970;6.954;2022-11-21T07:28:02;21.70;;;14.40;;
60352;SDS011;46196;52.970;6.954;2022-11-21T07:30:28;23.25;;;14.35;;
60352;SDS011;46196;52.970;6.954;2022-11-21T07:32:55;24.50;;;16.00;;
60352;SDS011;46196;52.970;6.954;2022-11-21T07:35:21;27.83;;;15.00;;
60352;SDS011;46196;52.970;6.954;2022-11-21T07:37:47;18.60;;;13.00;;
60352;SDS011;46196;52.970;6.954;2022-11-21T07:40:13;24.02;;;15.88;;
60352;SDS011;46196;52.970;6.954;2022-11-21T07:42:38;24.27;;;14.95;;
60352;SDS011;46196;52.970;6.954;2022-11-21T07:45:04;25.38;;;14.00;;
60352;SDS011;46196;52.970;6.954;2022-11-21T07:47:30;22.33;;;14.48;;
60352;SDS011;46196;52.970;6.954;2022-11-21T07:49:56;25.52;;;16.02;;
60352;SDS011;46196;52.970;6.954;2022-11-21T07:52:22;23.38;;;14.18;;
60352;SDS011;46196;52.970;6.954;2022-11-21T07:54:49;23.92;;;15.63;;
60352;SDS011;46196;52.970;6.954;2022-11-21T07:57:15;25.23;;;16.13;;
60352;SDS011;46196;52.970;6.954;2022-11-21T07:59:40;20.90;;;13.88;;
60352;SDS011;46196;52.970;6.954;2022-11-21T08:02:06;25.02;;;14.38;;
60352;SDS011;46196;52.970;6.954;2022-11-21T08:04:41;21.75;;;13.73;;
60352;SDS011;46196;52.970;6.954;2022-11-21T08:07:08;20.35;;;14.57;;
60352;SDS011;46196;52.970;6.954;2022-11-21T08:09:34;22.02;;;13.20;;
60352;SDS011;46196;52.970;6.954;2022-11-21T08:12:00;22.92;;;13.15;;
60352;SDS011;46196;52.970;6.954;2022-11-21T08:14:26;24.33;;;14.98;;
60352;SDS011;46196;52.970;6.954;2022-11-21T08:16:52;25.17;;;14.43;;
60352;SDS011;46196;52.970;6.954;2022-11-21T08:19:18;27.98;;;14.93;;
60352;SDS011;46196;52.970;6.954;2022-11-21T08:21:44;22.75;;;14.75;;
60352;SDS011;46196;52.970;6.954;2022-11-21T08:24:09;24.05;;;14.18;;
60352;SDS011;46196;52.970;6.954;2022-11-21T08:26:38;23.90;;;14.30;;
60352;SDS011;46196;52.970;6.954;2022-11-21T08:29:05;23.23;;;14.23;;
60352;SDS011;46196;52.970;6.954;2022-11-21T08:31:30;24.13;;;14.68;;
60352;SDS011;46196;52.970;6.954;2022-11-21T08:33:56;21.00;;;12.27;;
60352;SDS011;46196;52.970;6.954;2022-11-21T08:36:23;23.52;;;14.18;;
60352;SDS011;46196;52.970;6.954;2022-11-21T08:38:48;20.92;;;14.27;;
60352;SDS011;46196;52.970;6.954;2022-11-21T08:41:14;22.42;;;14.38;;
60352;SDS011;46196;52.970;6.954;2022-11-21T08:43:59;21.42;;;13.77;;
60352;SDS011;46196;52.970;6.954;2022-11-21T08:46:24;22.05;;;14.48;;
60352;SDS011;46196;52.970;6.954;2022-11-21T08:48:54;23.33;;;14.95;;
60352;SDS011;46196;52.970;6.954;2022-11-21T08:51:21;21.10;;;14.43;;
60352;SDS011;46196;52.970;6.954;2022-11-21T08:53:46;26.48;;;16.35;;
60352;SDS011;46196;52.970;6.954;2022-11-21T08:56:12;22.05;;;15.80;;
60352;SDS011;46196;52.970;6.954;2022-11-21T08:58:38;22.80;;;15.07;;
60352;SDS011;46196;52.970;6.954;2022-11-21T09:01:04;22.05;;;14.15;;
60352;SDS011;46196;52.970;6.954;2022-11-21T09:03:30;32.10;;;15.73;;
60352;SDS011;46196;52.970;6.954;2022-11-21T09:05:57;22.08;;;14.02;;
60352;SDS011;46196;52.970;6.954;2022-11-21T09:08:23;26.55;;;15.73;;
60352;SDS011;46196;52.970;6.954;2022-11-21T09:10:50;24.80;;;15.82;;
60352;SDS011;46196;52.970;6.954;2022-11-21T09:13:16;26.25;;;15.98;;
60352;SDS011;46196;52.970;6.954;2022-11-21T09:15:42;24.10;;;15.20;;
60352;SDS011;46196;52.970;6.954;2022-11-21T09:18:26;25.05;;;15.93;;
60352;SDS011;46196;52.970;6.954;2022-11-21T09:20:52;25.17;;;16.38;;
60352;SDS011;46196;52.970;6.954;2022-11-21T09:23:18;21.80;;;15.18;;
60352;SDS011;46196;52.970;6.954;2022-11-21T09:25:44;22.23;;;14.73;;
60352;SDS011;46196;52.970;6.954;2022-11-21T09:28:10;20.95;;;13.55;;
60352;SDS011;46196;52.970;6.954;2022-11-21T09:30:38;21.15;;;14.10;;
60352;SDS011;46196;52.970;6.954;2022-11-21T09:33:14;21.63;;;14.27;;
60352;SDS011;46196;52.970;6.954;2022-11-21T09:35:43;22.83;;;13.43;;
60352;SDS011;46196;52.970;6.954;2022-11-21T09:38:09;19.15;;;12.73;;
60352;SDS011;46196;52.970;6.954;2022-11-21T09:40:35;19.20;;;12.65;;
60352;SDS011;46196;52.970;6.954;2022-11-21T09:48:34;19.50;;;13.32;;
60352;SDS011;46196;52.970;6.954;2022-11-21T09:51:08;19.05;;;13.40;;
60352;SDS011;46196;52.970;6.954;2022-11-21T09:53:59;20.25;;;13.38;;
60352;SDS011;46196;52.970;6.954;2022-11-21T09:56:26;18.77;;;13.32;;
60352;SDS011;46196;52.970;6.954;2022-11-21T10:01:48;18.58;;;12.48;;
60352;SDS011;46196;52.970;6.954;2022-11-21T10:04:15;19.08;;;12.65;;
60352;SDS011;46196;52.970;6.954;2022-11-21T10:24:03;20.23;;;13.60;;
60352;SDS011;46196;52.970;6.954;2022-11-21T10:29:26;20.05;;;13.60;;
60352;SDS011;46196;52.970;6.954;2022-11-21T10:32:03;18.58;;;12.27;;
60352;SDS011;46196;52.970;6.954;2022-11-21T10:34:48;19.35;;;13.77;;
60352;SDS011;46196;52.970;6.954;2022-11-21T10:37:36;19.67;;;12.75;;
60352;SDS011;46196;52.970;6.954;2022-11-21T10:40:25;20.98;;;14.70;;
60352;SDS011;46196;52.970;6.954;2022-11-21T10:42:57;21.00;;;15.73;;
60352;SDS011;46196;52.970;6.954;2022-11-21T10:45:46;19.45;;;14.85;;
60352;SDS011;46196;52.970;6.954;2022-11-21T10:48:12;23.60;;;16.25;;
60352;SDS011;46196;52.970;6.954;2022-11-21T10:53:21;21.63;;;15.18;;
60352;SDS011;46196;52.970;6.954;2022-11-21T10:56:12;23.35;;;16.40;;
60352;SDS011;46196;52.970;6.954;2022-11-21T10:58:46;21.42;;;15.30;;
60352;SDS011;46196;52.970;6.954;2022-11-21T11:01:31;20.30;;;13.63;;
60352;SDS011;46196;52.970;6.954;2022-11-21T11:06:41;17.27;;;12.10;;
60352;SDS011;46196;52.970;6.954;2022-11-21T11:14:51;18.40;;;12.85;;
60352;SDS011;46196;52.970;6.954;2022-11-21T11:17:29;15.90;;;11.55;;
60352;SDS011;46196;52.970;6.954;2022-11-21T11:19:58;15.38;;;10.68;;
60352;SDS011;46196;52.970;6.954;2022-11-21T11:22:50;15.98;;;11.27;;
60352;SDS011;46196;52.970;6.954;2022-11-21T11:25:16;19.45;;;13.40;;
60352;SDS011;46196;52.970;6.954;2022-11-21T11:27:42;20.55;;;13.05;;
60352;SDS011;46196;52.970;6.954;2022-11-21T11:30:13;22.13;;;14.85;;
60352;SDS011;46196;52.970;6.954;2022-11-21T11:32:40;21.30;;;15.70;;
60352;SDS011;46196;52.970;6.954;2022-11-21T11:37:41;19.90;;;15.10;;
60352;SDS011;46196;52.970;6.954;2022-11-21T11:49:34;25.65;;;16.65;;
60352;SDS011;46196;52.970;6.954;2022-11-21T11:52:28;16.85;;;11.77;;
60352;SDS011;46196;52.970;6.954;2022-11-21T11:54:58;19.30;;;12.50;;
60352;SDS011;46196;52.970;6.954;2022-11-21T11:57:28;15.23;;;11.38;;
60352;SDS011;46196;52.970;6.954;2022-11-21T12:00:05;15.45;;;10.40;;
60352;SDS011;46196;52.970;6.954;2022-11-21T12:03:17;15.70;;;10.95;;
60352;SDS011;46196;52.970;6.954;2022-11-21T12:05:58;17.30;;;12.20;;
60352;SDS011;46196;52.970;6.954;2022-11-21T12:11:48;12.25;;;9.05;;
60352;SDS011;46196;52.970;6.954;2022-11-21T12:14:35;13.35;;;9.90;;
60352;SDS011;46196;52.970;6.954;2022-11-21T12:17:34;11.17;;;8.13;;
60352;SDS011;46196;52.970;6.954;2022-11-21T12:20:26;11.45;;;8.23;;
60352;SDS011;46196;52.970;6.954;2022-11-21T12:23:13;15.50;;;9.57;;
60352;SDS011;46196;52.970;6.954;2022-11-21T12:25:40;13.02;;;9.52;;
60352;SDS011;46196;52.970;6.954;2022-11-21T12:28:20;14.07;;;9.90;;
60352;SDS011;46196;52.970;6.954;2022-11-21T12:31:19;15.07;;;10.07;;
60352;SDS011;46196;52.970;6.954;2022-11-21T12:34:01;18.58;;;11.90;;
60352;SDS011;46196;52.970;6.954;2022-11-21T12:36:42;15.50;;;10.65;;
60352;SDS011;46196;52.970;6.954;2022-11-21T12:39:22;14.15;;;10.40;;
60352;SDS011;46196;52.970;6.954;2022-11-21T12:41:57;16.10;;;11.05;;
60352;SDS011;46196;52.970;6.954;2022-11-21T12:45:04;14.32;;;10.25;;
60352;SDS011;46196;52.970;6.954;2022-11-21T12:57:06;14.05;;;10.10;;
60352;SDS011;46196;52.970;6.954;2022-11-21T13:04:42;15.70;;;10.52;;
60352;SDS011;46196;52.970;6.954;2022-11-21T13:07:11;14.25;;;9.68;;
60352;SDS011;46196;52.970;6.954;2022-11-21T13:09:39;14.55;;;9.10;;
60352;SDS011;46196;52.970;6.954;2022-11-21T13:12:11;15.63;;;10.27;;
60352;SDS011;46196;52.970;6.954;2022-11-21T13:14:43;15.10;;;9.63;;
60352;SDS011;46196;52.970;6.954;2022-11-21T13:30:45;15.85;;;9.82;;
60352;SDS011;46196;52.970;6.954;2022-11-21T13:46:58;14.90;;;9.88;;
60352;SDS011;46196;52.970;6.954;2022-11-21T13:52:30;14.88;;;10.20;;
60352;SDS011;46196;52.970;6.954;2022-11-21T13:55:18;17.10;;;10.07;;
60352;SDS011;46196;52.970;6.954;2022-11-21T14:00:39;16.70;;;12.13;;
60352;SDS011;46196;52.970;6.954;2022-11-21T14:03:34;18.73;;;13.70;;
60352;SDS011;46196;52.970;6.954;2022-11-21T14:12:04;18.00;;;11.55;;
60352;SDS011;46196;52.970;6.954;2022-11-21T14:14:51;15.25;;;10.75;;
60352;SDS011;46196;52.970;6.954;2022-11-21T14:20:24;22.30;;;13.50;;
60352;SDS011;46196;52.970;6.954;2022-11-21T14:23:13;16.30;;;11.27;;
60352;SDS011;46196;52.970;6.954;2022-11-21T14:28:24;14.90;;;11.43;;
60352;SDS011;46196;52.970;6.954;2022-11-21T14:30:56;17.23;;;12.00;;
60352;SDS011;46196;52.970;6.954;2022-11-21T14:33:31;17.48;;;12.10;;
60352;SDS011;46196;52.970;6.954;2022-11-21T14:38:28;16.15;;;11.15;;
60352;SDS011;46196;52.970;6.954;2022-11-21T14:43:46;13.40;;;9.93;;
60352;SDS011;46196;52.970;6.954;2022-11-21T14:46:15;16.10;;;10.82;;
60352;SDS011;46196;52.970;6.954;2022-11-21T14:48:45;14.07;;;9.90;;
60352;SDS011;46196;52.970;6.954;2022-11-21T14:51:11;16.35;;;10.23;;
60352;SDS011;46196;52.970;6.954;2022-11-21T14:53:41;13.70;;;10.15;;
60352;SDS011;46196;52.970;6.954;2022-11-21T14:56:20;14.68;;;9.98;;
60352;SDS011;46196;52.970;6.954;2022-11-21T14:58:51;17.33;;;10.63;;
60352;SDS011;46196;52.970;6.954;2022-11-21T15:01:19;18.70;;;12.18;;
60352;SDS011;46196;52.970;6.954;2022-11-21T15:04:04;25.05;;;16.67;;
60352;SDS011;46196;52.970;6.954;2022-11-21T15:06:41;21.85;;;13.50;;
60352;SDS011;46196;52.970;6.954;2022-11-21T15:09:12;22.13;;;14.77;;
60352;SDS011;46196;52.970;6.954;2022-11-21T15:11:40;25.02;;;14.35;;
60352;SDS011;46196;52.970;6.954;2022-11-21T15:16:57;26.73;;;16.45;;
60352;SDS011;46196;52.970;6.954;2022-11-21T15:19:28;27.80;;;16.52;;
60352;SDS011;46196;52.970;6.954;2022-11-21T15:21:56;28.10;;;15.73;;
60352;SDS011;46196;52.970;6.954;2022-11-21T15:24:28;27.83;;;15.98;;
60352;SDS011;46196;52.970;6.954;2022-11-21T15:26:54;26.48;;;14.98;;
60352;SDS011;46196;52.970;6.954;2022-11-21T15:29:20;31.10;;;15.93;;
60352;SDS011;46196;52.970;6.954;2022-11-21T15:32:05;26.38;;;15.73;;
60352;SDS011;46196;52.970;6.954;2022-11-21T15:34:35;29.33;;;16.25;;
60352;SDS011;46196;52.970;6.954;2022-11-21T15:37:02;26.15;;;14.38;;
60352;SDS011;46196;52.970;6.954;2022-11-21T15:39:29;32.88;;;16.23;;
60352;SDS011;46196;52.970;6.954;2022-11-21T15:42:25;27.60;;;15.50;;
60352;SDS011;46196;52.970;6.954;2022-11-21T15:47:28;29.98;;;17.05;;
60352;SDS011;46196;52.970;6.954;2022-11-21T15:49:53;34.38;;;15.77;;
60352;SDS011;46196;52.970;6.954;2022-11-21T15:52:19;28.55;;;15.85;;
60352;SDS011;46196;52.970;6.954;2022-11-21T15:54:45;30.13;;;17.13;;
60352;SDS011;46196;52.970;6.954;2022-11-21T15:57:12;34.67;;;17.85;;
60352;SDS011;46196;52.970;6.954;2022-11-21T15:59:39;34.85;;;15.93;;
60352;SDS011;46196;52.970;6.954;2022-11-21T16:02:05;26.58;;;13.27;;
60352;SDS011;46196;52.970;6.954;2022-11-21T16:04:33;30.50;;;13.93;;
60352;SDS011;46196;52.970;6.954;2022-11-21T16:06:59;31.65;;;14.77;;
60352;SDS011;46196;52.970;6.954;2022-11-21T16:09:25;32.05;;;15.48;;
60352;SDS011;46196;52.970;6.954;2022-11-21T16:11:50;34.83;;;15.40;;
60352;SDS011;46196;52.970;6.954;2022-11-21T16:14:16;30.25;;;15.75;;
60352;SDS011;46196;52.970;6.954;2022-11-21T16:16:42;28.77;;;15.00;;
60352;SDS011;46196;52.970;6.954;2022-11-21T16:19:09;32.83;;;15.65;;
60352;SDS011;46196;52.970;6.954;2022-11-21T16:21:36;30.15;;;14.13;;
60352;SDS011;46196;52.970;6.954;2022-11-21T16:24:02;35.03;;;16.02;;
60352;SDS011;46196;52.970;6.954;2022-11-21T16:26:28;32.55;;;15.43;;
60352;SDS011;46196;52.970;6.954;2022-11-21T16:28:54;37.88;;;16.20;;
60352;SDS011;46196;52.970;6.954;2022-11-21T16:31:21;32.95;;;16.83;;
60352;SDS011;46196;52.970;6.954;2022-11-21T16:33:48;37.83;;;17.23;;
60352;SDS011;46196;52.970;6.954;2022-11-21T16:36:18;41.53;;;17.85;;
60352;SDS011;46196;52.970;6.954;2022-11-21T16:38:49;40.20;;;16.83;;
60352;SDS011;46196;52.970;6.954;2022-11-21T16:41:15;41.25;;;16.90;;
60352;SDS011;46196;52.970;6.954;2022-11-21T16:46:12;41.97;;;17.52;;
60352;SDS011;46196;52.970;6.954;2022-11-21T16:48:38;46.60;;;18.52;;
60352;SDS011;46196;52.970;6.954;2022-11-21T16:51:07;40.33;;;18.40;;
60352;SDS011;46196;52.970;6.954;2022-11-21T16:53:38;43.33;;;19.25;;
60352;SDS011;46196;52.970;6.954;2022-11-21T16:56:05;48.45;;;19.48;;
60352;SDS011;46196;52.970;6.954;2022-11-21T16:58:31;43.10;;;17.55;;
60352;SDS011;46196;52.970;6.954;2022-11-21T17:00:57;40.10;;;15.60;;
60352;SDS011;46196;52.970;6.954;2022-11-21T17:03:30;41.85;;;16.45;;